Terminal Aerodrome Forecast
Issued by NWS Anchorage, AK

Home | Current Version | Previous Version | Text Only | Print | Product List | Glossary On
Versions: 1 2 3 4 5 6 7 8 9 10 11 12 13 14 15 16 17 18 19 20 21 22 23 24 25 26 27 28 29 30
089
FTAK31 PANC 061739
TAFANC
TAF
PANC 061739Z 0618/0724 35006KT P6SM VCSH SCT045 OVC060
      TEMPO 0618/0621 6SM -SHSN BKN045
     FM070300 03006KT P6SM SCT025 BKN050 OVC080
     FM071500 01004KT P6SM SCT050 BKN080=

USA.gov is the U.S. government's official web portal to all federal, state and local government web resources and services.